Austin, TX (78731)

9:57 PM CST on December 18, 2014 (GMT -0600)
Highland Park West and Balcones Area | Change Station
CLOSE
Current Station
Personal Weather Station
Location: Austin, TX
Elevation: 722 ft
Nearby Weather Stations

Elev 722 ft 30.33 °N, 97.76 °W | Updated 23 seconds ago

Overcast
Overcast
53.1 °F
Feels Like 53.1 °F
N
0.9
Wind Variable Wind from WNW
Gusts 6.0 mph

Today
High -- | Low -- °F
--% Chance of Precip.
Yesterday
High -- | Low -- °F
Precip. -- in
7:22 AM 5:33 PM
Waning Crescent, 10% visible
Pressure 30.10 in
Visibility 6.0 miles
Clouds Overcast 800 ft
Dew Point 51 °F
Humidity 92%
Rainfall 0.00 in
Snow Depth Not available.
UV 0 out of 12
Pollen 8.10 out of 12
Air Quality Not available.
Flu Activity Not available.
METAR KATT 190351Z AUTO 02009KT 340V050 6SM BR OVC008 12/10 A3009 RMK AO2 SLP191 T01170100

More Conditions Fewer Conditions

Pressure 30.10 in
Visibility 6.0 miles
Clouds Overcast 800 ft
Dew Point 51 °F
Humidity 92%
Rainfall 0.00 in
Snow Depth Not available.
UV 0 out of 12
Pollen 8.10 out of 12
Air Quality Not available.
Flu Activity Not available.
METAR KATT 190351Z AUTO 02009KT 340V050 6SM BR OVC008 12/10 A3009 RMK AO2 SLP191 T01170100

More Conditions Fewer Conditions

Nowcast | as of 8:53 PM CST on December 18, 2014

Through 1030 PM...areas of light rain...rain showers and isolated thunderstorms will continue to develop and move north across south central Texas. Rainfall amounts will range from a few tenths to one half inch. Locally heavier amounts to near one inch are possible in thunderstorms. Rainfall coverage will increase during the late evening and become more widespread overnight.

×

10-Day Weather Forecast

Almanac

Astronomy

Dec. 18, 2014 Rise Set
Actual Time
Civil Twilight
Nautical Twilight
Astronomical Twilight
Moon
Length of Visible Light
Length of Day
Tomorrow will be .
, % of the Moon is Illuminated

Today's Extremes

State Highs State Lows

Community

WunderPhotos

Upload Photos

1,778,985 photos uploaded!

WunderBlogs® & News

Nearby

Air Quality

  Air Quality AQ Index Pollutant
Not available.

Snow Depth

Station Depth Elevation

Earthquake Activity

City Distance Mag. Time & Date
Minimum magnitude displayed is 2.5.

Coastal Water Temperatures

Place Temperature

Nearby Weather Stations